sensor_id;sensor_type;location;lat;lon;timestamp;temperature;humidity
17423;DHT22;8829;47.932;7.810;2022-10-12T00:00:17;11.50;99.90
17423;DHT22;8829;47.932;7.810;2022-10-12T00:02:44;11.40;99.90
17423;DHT22;8829;47.932;7.810;2022-10-12T00:05:11;11.40;99.90
17423;DHT22;8829;47.932;7.810;2022-10-12T00:07:38;11.50;99.90
17423;DHT22;8829;47.932;7.810;2022-10-12T00:10:06;11.50;99.90
17423;DHT22;8829;47.932;7.810;2022-10-12T00:12:33;11.50;99.90
17423;DHT22;8829;47.932;7.810;2022-10-12T00:15:00;11.60;99.90
17423;DHT22;8829;47.932;7.810;2022-10-12T00:17:27;11.60;99.90
17423;DHT22;8829;47.932;7.810;2022-10-12T00:19:53;11.80;99.90
17423;DHT22;8829;47.932;7.810;2022-10-12T00:22:22;11.90;99.90
17423;DHT22;8829;47.932;7.810;2022-10-12T00:24:50;11.90;99.90
17423;DHT22;8829;47.932;7.810;2022-10-12T00:27:19;12.00;99.90
17423;DHT22;8829;47.932;7.810;2022-10-12T00:29:46;12.10;99.90
17423;DHT22;8829;47.932;7.810;2022-10-12T00:32:13;12.00;99.90
17423;DHT22;8829;47.932;7.810;2022-10-12T00:34:39;12.00;99.90
17423;DHT22;8829;47.932;7.810;2022-10-12T00:37:06;11.90;99.90
17423;DHT22;8829;47.932;7.810;2022-10-12T00:39:33;12.00;99.90
17423;DHT22;8829;47.932;7.810;2022-10-12T00:41:59;12.10;99.90
17423;DHT22;8829;47.932;7.810;2022-10-12T00:44:36;12.10;99.90
17423;DHT22;8829;47.932;7.810;2022-10-12T00:47:09;12.10;99.90
17423;DHT22;8829;47.932;7.810;2022-10-12T00:49:39;12.20;99.90
17423;DHT22;8829;47.932;7.810;2022-10-12T00:52:09;12.40;99.90
17423;DHT22;8829;47.932;7.810;2022-10-12T00:54:43;12.50;99.90
17423;DHT22;8829;47.932;7.810;2022-10-12T00:57:14;12.60;99.90
17423;DHT22;8829;47.932;7.810;2022-10-12T00:59:46;12.60;99.90
17423;DHT22;8829;47.932;7.810;2022-10-12T01:02:15;12.60;99.90
17423;DHT22;8829;47.932;7.810;2022-10-12T01:04:43;12.60;99.90
17423;DHT22;8829;47.932;7.810;2022-10-12T01:07:11;12.60;99.90
17423;DHT22;8829;47.932;7.810;2022-10-12T01:09:37;12.60;99.90
17423;DHT22;8829;47.932;7.810;2022-10-12T01:12:06;12.60;99.90
17423;DHT22;8829;47.932;7.810;2022-10-12T01:14:33;12.60;99.90
17423;DHT22;8829;47.932;7.810;2022-10-12T01:17:09;12.60;99.90
17423;DHT22;8829;47.932;7.810;2022-10-12T01:22:46;12.80;99.90
17423;DHT22;8829;47.932;7.810;2022-10-12T01:25:28;12.90;99.90
17423;DHT22;8829;47.932;7.810;2022-10-12T01:28:07;12.90;99.90
17423;DHT22;8829;47.932;7.810;2022-10-12T01:30:44;13.00;99.90
17423;DHT22;8829;47.932;7.810;2022-10-12T01:33:23;12.90;99.90
17423;DHT22;8829;47.932;7.810;2022-10-12T01:35:55;13.00;99.90
17423;DHT22;8829;47.932;7.810;2022-10-12T01:38:35;13.00;99.90
17423;DHT22;8829;47.932;7.810;2022-10-12T01:41:09;13.00;99.90
17423;DHT22;8829;47.932;7.810;2022-10-12T01:43:39;13.10;99.90
17423;DHT22;8829;47.932;7.810;2022-10-12T01:49:08;13.10;99.90
17423;DHT22;8829;47.932;7.810;2022-10-12T01:51:42;13.20;99.90
17423;DHT22;8829;47.932;7.810;2022-10-12T01:54:19;13.20;99.90
17423;DHT22;8829;47.932;7.810;2022-10-12T01:56:56;13.20;99.90
17423;DHT22;8829;47.932;7.810;2022-10-12T01:59:33;13.20;99.90
17423;DHT22;8829;47.932;7.810;2022-10-12T02:02:09;13.30;99.90
17423;DHT22;8829;47.932;7.810;2022-10-12T02:04:45;13.30;99.90
17423;DHT22;8829;47.932;7.810;2022-10-12T02:07:17;13.30;99.90
17423;DHT22;8829;47.932;7.810;2022-10-12T02:09:46;13.20;99.90
17423;DHT22;8829;47.932;7.810;2022-10-12T02:12:16;13.20;99.90
17423;DHT22;8829;47.932;7.810;2022-10-12T02:14:46;13.20;99.90
17423;DHT22;8829;47.932;7.810;2022-10-12T02:17:16;13.20;99.90
17423;DHT22;8829;47.932;7.810;2022-10-12T02:19:47;13.20;99.90
17423;DHT22;8829;47.932;7.810;2022-10-12T02:22:16;13.20;99.90
17423;DHT22;8829;47.932;7.810;2022-10-12T02:24:47;13.20;99.90
17423;DHT22;8829;47.932;7.810;2022-10-12T02:27:15;13.20;99.90
17423;DHT22;8829;47.932;7.810;2022-10-12T02:29:45;13.10;99.90
17423;DHT22;8829;47.932;7.810;2022-10-12T02:32:16;13.10;99.90
17423;DHT22;8829;47.932;7.810;2022-10-12T02:34:49;13.00;99.90
17423;DHT22;8829;47.932;7.810;2022-10-12T02:37:27;12.70;99.90
17423;DHT22;8829;47.932;7.810;2022-10-12T02:40:03;12.70;99.90
17423;DHT22;8829;47.932;7.810;2022-10-12T02:42:37;12.70;99.90
17423;DHT22;8829;47.932;7.810;2022-10-12T02:45:07;12.60;99.90
17423;DHT22;8829;47.932;7.810;2022-10-12T02:47:35;12.50;99.90
17423;DHT22;8829;47.932;7.810;2022-10-12T02:50:07;12.30;99.90
17423;DHT22;8829;47.932;7.810;2022-10-12T02:52:35;12.20;99.90
17423;DHT22;8829;47.932;7.810;2022-10-12T02:55:02;12.30;99.90
17423;DHT22;8829;47.932;7.810;2022-10-12T02:57:29;12.50;99.90
17423;DHT22;8829;47.932;7.810;2022-10-12T02:59:55;12.60;99.90
17423;DHT22;8829;47.932;7.810;2022-10-12T03:02:23;12.70;99.90
17423;DHT22;8829;47.932;7.810;2022-10-12T03:04:50;12.80;99.90
17423;DHT22;8829;47.932;7.810;2022-10-12T03:07:19;12.90;99.90
17423;DHT22;8829;47.932;7.810;2022-10-12T03:09:46;12.80;99.90
17423;DHT22;8829;47.932;7.810;2022-10-12T03:12:13;12.80;99.90
17423;DHT22;8829;47.932;7.810;2022-10-12T03:14:39;12.80;99.90
17423;DHT22;8829;47.932;7.810;2022-10-12T03:17:06;12.80;99.90
17423;DHT22;8829;47.932;7.810;2022-10-12T03:19:33;12.70;99.90
17423;DHT22;8829;47.932;7.810;2022-10-12T03:22:00;12.70;99.90
17423;DHT22;8829;47.932;7.810;2022-10-12T03:24:28;12.70;99.90
17423;DHT22;8829;47.932;7.810;2022-10-12T03:26:55;12.70;99.90
17423;DHT22;8829;47.932;7.810;2022-10-12T03:29:21;12.50;99.90
17423;DHT22;8829;47.932;7.810;2022-10-12T03:31:48;12.80;99.90
17423;DHT22;8829;47.932;7.810;2022-10-12T03:34:15;12.70;99.90
17423;DHT22;8829;47.932;7.810;2022-10-12T03:36:42;12.70;99.90
17423;DHT22;8829;47.932;7.810;2022-10-12T03:39:09;12.70;99.90
17423;DHT22;8829;47.932;7.810;2022-10-12T03:41:38;12.70;99.90
17423;DHT22;8829;47.932;7.810;2022-10-12T03:44:04;12.80;99.90
17423;DHT22;8829;47.932;7.810;2022-10-12T03:46:31;12.80;99.90
17423;DHT22;8829;47.932;7.810;2022-10-12T03:48:58;12.70;99.90
17423;DHT22;8829;47.932;7.810;2022-10-12T03:51:24;12.80;99.90
17423;DHT22;8829;47.932;7.810;2022-10-12T03:53:52;12.80;99.90
17423;DHT22;8829;47.932;7.810;2022-10-12T03:56:18;12.70;99.90
17423;DHT22;8829;47.932;7.810;2022-10-12T03:58:46;12.70;99.90
17423;DHT22;8829;47.932;7.810;2022-10-12T04:01:13;12.70;99.90
17423;DHT22;8829;47.932;7.810;2022-10-12T04:03:40;12.70;99.90
17423;DHT22;8829;47.932;7.810;2022-10-12T04:06:07;12.70;99.90
17423;DHT22;8829;47.932;7.810;2022-10-12T04:08:33;12.70;99.90
17423;DHT22;8829;47.932;7.810;2022-10-12T04:11:00;12.70;99.90
17423;DHT22;8829;47.932;7.810;2022-10-12T04:13:27;12.60;99.90
17423;DHT22;8829;47.932;7.810;2022-10-12T04:15:59;12.60;99.90
17423;DHT22;8829;47.932;7.810;2022-10-12T04:18:26;12.40;99.90
17423;DHT22;8829;47.932;7.810;2022-10-12T04:20:53;12.10;99.90
17423;DHT22;8829;47.932;7.810;2022-10-12T04:23:20;12.00;99.90
17423;DHT22;8829;47.932;7.810;2022-10-12T04:25:46;11.70;99.90
17423;DHT22;8829;47.932;7.810;2022-10-12T04:28:13;11.50;99.90
17423;DHT22;8829;47.932;7.810;2022-10-12T04:30:40;11.40;99.90
17423;DHT22;8829;47.932;7.810;2022-10-12T04:33:08;11.40;99.90
17423;DHT22;8829;47.932;7.810;2022-10-12T04:35:35;11.30;99.90
17423;DHT22;8829;47.932;7.810;2022-10-12T04:38:01;11.30;99.90
17423;DHT22;8829;47.932;7.810;2022-10-12T04:40:28;11.60;99.90
17423;DHT22;8829;47.932;7.810;2022-10-12T04:42:55;11.80;99.90
17423;DHT22;8829;47.932;7.810;2022-10-12T04:45:22;12.00;99.90
17423;DHT22;8829;47.932;7.810;2022-10-12T04:47:52;12.20;99.90
17423;DHT22;8829;47.932;7.810;2022-10-12T04:50:21;12.30;99.90
17423;DHT22;8829;47.932;7.810;2022-10-12T04:52:47;12.30;99.90
17423;DHT22;8829;47.932;7.810;2022-10-12T04:55:14;12.40;99.90
17423;DHT22;8829;47.932;7.810;2022-10-12T04:57:41;12.50;99.90
17423;DHT22;8829;47.932;7.810;2022-10-12T05:00:09;12.50;99.90
17423;DHT22;8829;47.932;7.810;2022-10-12T05:02:36;12.50;99.90
17423;DHT22;8829;47.932;7.810;2022-10-12T05:05:03;12.60;99.90
17423;DHT22;8829;47.932;7.810;2022-10-12T05:07:31;12.50;99.90
17423;DHT22;8829;47.932;7.810;2022-10-12T05:09:58;12.40;99.90
17423;DHT22;8829;47.932;7.810;2022-10-12T05:12:25;12.20;99.90
17423;DHT22;8829;47.932;7.810;2022-10-12T05:14:52;12.10;99.90
17423;DHT22;8829;47.932;7.810;2022-10-12T05:17:18;11.90;99.90
17423;DHT22;8829;47.932;7.810;2022-10-12T05:19:45;11.70;99.90
17423;DHT22;8829;47.932;7.810;2022-10-12T05:22:12;11.70;99.90
17423;DHT22;8829;47.932;7.810;2022-10-12T05:24:40;11.60;99.90
17423;DHT22;8829;47.932;7.810;2022-10-12T05:27:06;11.60;99.90
17423;DHT22;8829;47.932;7.810;2022-10-12T05:29:33;11.50;99.90
17423;DHT22;8829;47.932;7.810;2022-10-12T05:32:00;11.60;99.90
17423;DHT22;8829;47.932;7.810;2022-10-12T05:34:27;11.60;99.90
17423;DHT22;8829;47.932;7.810;2022-10-12T05:36:53;11.60;99.90
17423;DHT22;8829;47.932;7.810;2022-10-12T05:39:22;11.60;99.90
17423;DHT22;8829;47.932;7.810;2022-10-12T05:41:50;11.60;99.90
17423;DHT22;8829;47.932;7.810;2022-10-12T05:44:18;11.50;99.90
17423;DHT22;8829;47.932;7.810;2022-10-12T05:46:45;11.40;99.90
17423;DHT22;8829;47.932;7.810;2022-10-12T05:49:12;11.30;99.90
17423;DHT22;8829;47.932;7.810;2022-10-12T05:51:38;11.40;99.90
17423;DHT22;8829;47.932;7.810;2022-10-12T05:54:05;11.40;99.90
17423;DHT22;8829;47.932;7.810;2022-10-12T05:56:32;11.40;99.90
17423;DHT22;8829;47.932;7.810;2022-10-12T05:59:01;11.40;99.90
17423;DHT22;8829;47.932;7.810;2022-10-12T06:01:28;11.50;99.90
17423;DHT22;8829;47.932;7.810;2022-10-12T06:03:55;11.50;99.90
17423;DHT22;8829;47.932;7.810;2022-10-12T06:06:22;11.50;99.90
17423;DHT22;8829;47.932;7.810;2022-10-12T06:08:50;11.60;99.90
17423;DHT22;8829;47.932;7.810;2022-10-12T06:11:17;11.70;99.90
17423;DHT22;8829;47.932;7.810;2022-10-12T06:13:44;11.70;99.90
17423;DHT22;8829;47.932;7.810;2022-10-12T06:16:12;11.70;99.90
17423;DHT22;8829;47.932;7.810;2022-10-12T06:18:39;11.70;99.90
17423;DHT22;8829;47.932;7.810;2022-10-12T06:21:05;11.80;99.90
17423;DHT22;8829;47.932;7.810;2022-10-12T06:23:32;11.90;99.90
17423;DHT22;8829;47.932;7.810;2022-10-12T06:25:59;11.90;99.90
17423;DHT22;8829;47.932;7.810;2022-10-12T06:28:26;11.80;99.90
17423;DHT22;8829;47.932;7.810;2022-10-12T06:30:54;12.00;99.90
17423;DHT22;8829;47.932;7.810;2022-10-12T06:33:22;12.00;99.90
17423;DHT22;8829;47.932;7.810;2022-10-12T06:35:49;12.20;99.90
17423;DHT22;8829;47.932;7.810;2022-10-12T06:38:16;12.40;99.90
17423;DHT22;8829;47.932;7.810;2022-10-12T06:40:43;12.50;99.90
17423;DHT22;8829;47.932;7.810;2022-10-12T06:43:10;12.70;99.90
17423;DHT22;8829;47.932;7.810;2022-10-12T06:45:37;12.80;99.90
17423;DHT22;8829;47.932;7.810;2022-10-12T06:48:05;12.90;99.90
17423;DHT22;8829;47.932;7.810;2022-10-12T06:50:34;12.90;99.90
17423;DHT22;8829;47.932;7.810;2022-10-12T06:53:01;13.10;99.90
17423;DHT22;8829;47.932;7.810;2022-10-12T06:55:28;13.10;99.90
17423;DHT22;8829;47.932;7.810;2022-10-12T06:57:56;13.20;99.90
17423;DHT22;8829;47.932;7.810;2022-10-12T07:00:23;13.20;99.90
17423;DHT22;8829;47.932;7.810;2022-10-12T07:02:50;13.30;99.90
17423;DHT22;8829;47.932;7.810;2022-10-12T07:05:17;13.20;99.90
17423;DHT22;8829;47.932;7.810;2022-10-12T07:07:46;13.40;99.90
17423;DHT22;8829;47.932;7.810;2022-10-12T07:10:13;13.50;99.90
17423;DHT22;8829;47.932;7.810;2022-10-12T07:12:40;13.50;99.90
17423;DHT22;8829;47.932;7.810;2022-10-12T07:15:08;13.60;99.90
17423;DHT22;8829;47.932;7.810;2022-10-12T07:17:35;13.60;99.90
17423;DHT22;8829;47.932;7.810;2022-10-12T07:20:02;13.60;99.90
17423;DHT22;8829;47.932;7.810;2022-10-12T07:22:29;13.60;99.90
17423;DHT22;8829;47.932;7.810;2022-10-12T07:24:57;13.70;99.90
17423;DHT22;8829;47.932;7.810;2022-10-12T07:27:24;13.70;99.90
17423;DHT22;8829;47.932;7.810;2022-10-12T07:29:51;13.80;99.90
17423;DHT22;8829;47.932;7.810;2022-10-12T07:32:18;13.80;99.90
17423;DHT22;8829;47.932;7.810;2022-10-12T07:34:45;13.90;99.90
17423;DHT22;8829;47.932;7.810;2022-10-12T07:37:12;13.90;99.90
17423;DHT22;8829;47.932;7.810;2022-10-12T07:39:39;14.00;99.90
17423;DHT22;8829;47.932;7.810;2022-10-12T07:42:09;14.00;99.90
17423;DHT22;8829;47.932;7.810;2022-10-12T07:44:35;14.20;99.90
17423;DHT22;8829;47.932;7.810;2022-10-12T07:47:02;14.20;99.90
17423;DHT22;8829;47.932;7.810;2022-10-12T07:49:30;14.30;99.90
17423;DHT22;8829;47.932;7.810;2022-10-12T07:51:57;14.30;99.90
17423;DHT22;8829;47.932;7.810;2022-10-12T07:54:23;14.40;99.90
17423;DHT22;8829;47.932;7.810;2022-10-12T07:56:50;14.40;99.90
17423;DHT22;8829;47.932;7.810;2022-10-12T07:59:18;14.50;99.90
17423;DHT22;8829;47.932;7.810;2022-10-12T08:01:45;14.50;99.90
17423;DHT22;8829;47.932;7.810;2022-10-12T08:04:11;14.40;99.90
17423;DHT22;8829;47.932;7.810;2022-10-12T08:06:41;14.50;99.90
17423;DHT22;8829;47.932;7.810;2022-10-12T08:09:08;14.60;99.90
17423;DHT22;8829;47.932;7.810;2022-10-12T08:11:39;14.60;99.90
17423;DHT22;8829;47.932;7.810;2022-10-12T08:14:08;14.70;99.90
17423;DHT22;8829;47.932;7.810;2022-10-12T08:16:39;14.60;99.90
17423;DHT22;8829;47.932;7.810;2022-10-12T08:19:06;14.20;99.90
17423;DHT22;8829;47.932;7.810;2022-10-12T08:21:33;14.10;99.90
17423;DHT22;8829;47.932;7.810;2022-10-12T08:23:59;14.40;99.90
17423;DHT22;8829;47.932;7.810;2022-10-12T08:26:26;14.50;99.90
17423;DHT22;8829;47.932;7.810;2022-10-12T08:28:53;14.30;99.90
17423;DHT22;8829;47.932;7.810;2022-10-12T08:31:20;14.30;99.90
17423;DHT22;8829;47.932;7.810;2022-10-12T08:33:48;14.40;99.90
17423;DHT22;8829;47.932;7.810;2022-10-12T08:36:15;14.60;99.90
17423;DHT22;8829;47.932;7.810;2022-10-12T08:38:42;14.80;99.90
17423;DHT22;8829;47.932;7.810;2022-10-12T08:41:20;14.50;99.90
17423;DHT22;8829;47.932;7.810;2022-10-12T08:44:03;14.60;99.90
17423;DHT22;8829;47.932;7.810;2022-10-12T08:46:32;14.90;99.90
17423;DHT22;8829;47.932;7.810;2022-10-12T08:49:03;15.10;99.90
17423;DHT22;8829;47.932;7.810;2022-10-12T08:51:43;15.20;99.90
17423;DHT22;8829;47.932;7.810;2022-10-12T08:54:13;15.30;99.90
17423;DHT22;8829;47.932;7.810;2022-10-12T08:56:40;15.50;99.90
17423;DHT22;8829;47.932;7.810;2022-10-12T08:59:10;15.50;99.90
17423;DHT22;8829;47.932;7.810;2022-10-12T09:01:49;15.50;99.90
17423;DHT22;8829;47.932;7.810;2022-10-12T09:04:32;15.60;99.90
17423;DHT22;8829;47.932;7.810;2022-10-12T09:07:06;15.70;99.90
17423;DHT22;8829;47.932;7.810;2022-10-12T09:09:44;15.70;99.90
17423;DHT22;8829;47.932;7.810;2022-10-12T09:12:25;15.80;99.90
17423;DHT22;8829;47.932;7.810;2022-10-12T09:14:58;15.80;99.90
17423;DHT22;8829;47.932;7.810;2022-10-12T09:17:30;15.90;99.90
17423;DHT22;8829;47.932;7.810;2022-10-12T09:20:09;15.90;99.90
17423;DHT22;8829;47.932;7.810;2022-10-12T09:22:44;15.80;99.90
17423;DHT22;8829;47.932;7.810;2022-10-12T09:25:14;15.80;99.90
17423;DHT22;8829;47.932;7.810;2022-10-12T09:27:43;15.80;99.90
17423;DHT22;8829;47.932;7.810;2022-10-12T09:30:13;15.80;99.90
17423;DHT22;8829;47.932;7.810;2022-10-12T09:35:32;15.90;99.90
17423;DHT22;8829;47.932;7.810;2022-10-12T09:38:00;16.00;99.90
17423;DHT22;8829;47.932;7.810;2022-10-12T09:40:29;16.00;99.90
17423;DHT22;8829;47.932;7.810;2022-10-12T09:42:58;15.90;99.90
17423;DHT22;8829;47.932;7.810;2022-10-12T09:45:29;15.90;99.90
17423;DHT22;8829;47.932;7.810;2022-10-12T09:48:11;15.90;99.90
17423;DHT22;8829;47.932;7.810;2022-10-12T09:50:42;15.90;99.90
17423;DHT22;8829;47.932;7.810;2022-10-12T09:53:18;15.80;99.90
17423;DHT22;8829;47.932;7.810;2022-10-12T09:55:53;15.70;99.90
17423;DHT22;8829;47.932;7.810;2022-10-12T09:58:21;15.60;99.90
17423;DHT22;8829;47.932;7.810;2022-10-12T10:01:09;15.50;99.90
17423;DHT22;8829;47.932;7.810;2022-10-12T10:03:36;15.40;99.90
17423;DHT22;8829;47.932;7.810;2022-10-12T10:06:05;15.50;99.90
17423;DHT22;8829;47.932;7.810;2022-10-12T10:08:39;15.50;99.90
17423;DHT22;8829;47.932;7.810;2022-10-12T10:11:13;15.50;99.90
17423;DHT22;8829;47.932;7.810;2022-10-12T10:13:46;15.50;99.90
17423;DHT22;8829;47.932;7.810;2022-10-12T10:16:13;15.40;99.90
17423;DHT22;8829;47.932;7.810;2022-10-12T10:18:42;15.50;99.90
17423;DHT22;8829;47.932;7.810;2022-10-12T10:21:14;15.60;99.90
17423;DHT22;8829;47.932;7.810;2022-10-12T10:23:48;15.50;99.90
17423;DHT22;8829;47.932;7.810;2022-10-12T10:26:19;15.50;99.90
17423;DHT22;8829;47.932;7.810;2022-10-12T10:28:47;15.50;99.90
17423;DHT22;8829;47.932;7.810;2022-10-12T10:31:20;15.50;99.90
17423;DHT22;8829;47.932;7.810;2022-10-12T10:34:09;15.60;99.90
17423;DHT22;8829;47.932;7.810;2022-10-12T10:36:39;15.70;99.90
17423;DHT22;8829;47.932;7.810;2022-10-12T10:39:16;15.70;99.90
17423;DHT22;8829;47.932;7.810;2022-10-12T10:41:44;15.70;99.90
17423;DHT22;8829;47.932;7.810;2022-10-12T10:44:26;15.80;99.90
17423;DHT22;8829;47.932;7.810;2022-10-12T10:46:55;15.80;99.90
17423;DHT22;8829;47.932;7.810;2022-10-12T10:49:35;15.80;99.90
17423;DHT22;8829;47.932;7.810;2022-10-12T10:52:05;15.80;99.90
17423;DHT22;8829;47.932;7.810;2022-10-12T10:54:34;16.00;99.90
17423;DHT22;8829;47.932;7.810;2022-10-12T10:57:05;16.10;99.90
17423;DHT22;8829;47.932;7.810;2022-10-12T10:59:46;16.20;99.90
17423;DHT22;8829;47.932;7.810;2022-10-12T11:02:19;16.30;99.90
17423;DHT22;8829;47.932;7.810;2022-10-12T11:04:50;16.40;99.90
17423;DHT22;8829;47.932;7.810;2022-10-12T11:07:23;16.40;99.90
17423;DHT22;8829;47.932;7.810;2022-10-12T11:09:55;16.60;99.90
17423;DHT22;8829;47.932;7.810;2022-10-12T11:12:25;16.60;99.90
17423;DHT22;8829;47.932;7.810;2022-10-12T11:14:57;16.60;99.90
17423;DHT22;8829;47.932;7.810;2022-10-12T11:17:29;16.60;99.90
17423;DHT22;8829;47.932;7.810;2022-10-12T11:20:04;16.60;99.90
17423;DHT22;8829;47.932;7.810;2022-10-12T11:22:36;16.50;99.90
17423;DHT22;8829;47.932;7.810;2022-10-12T11:25:11;16.50;99.90
17423;DHT22;8829;47.932;7.810;2022-10-12T11:27:41;16.50;99.90
17423;DHT22;8829;47.932;7.810;2022-10-12T11:30:13;16.50;99.90
17423;DHT22;8829;47.932;7.810;2022-10-12T11:32:42;16.50;99.90
17423;DHT22;8829;47.932;7.810;2022-10-12T11:35:14;16.60;99.90
17423;DHT22;8829;47.932;7.810;2022-10-12T11:37:50;16.60;99.90
17423;DHT22;8829;47.932;7.810;2022-10-12T11:40:22;16.60;99.90
17423;DHT22;8829;47.932;7.810;2022-10-12T11:42:50;16.60;99.90
17423;DHT22;8829;47.932;7.810;2022-10-12T11:45:22;16.60;99.90
17423;DHT22;8829;47.932;7.810;2022-10-12T11:47:54;16.60;99.90
17423;DHT22;8829;47.932;7.810;2022-10-12T11:50:28;16.60;99.90
17423;DHT22;8829;47.932;7.810;2022-10-12T11:52:58;16.70;99.90
17423;DHT22;8829;47.932;7.810;2022-10-12T11:55:37;16.70;99.90
17423;DHT22;8829;47.932;7.810;2022-10-12T11:58:11;16.60;99.90
17423;DHT22;8829;47.932;7.810;2022-10-12T12:00:52;16.60;99.90
17423;DHT22;8829;47.932;7.810;2022-10-12T12:03:24;16.50;99.90
17423;DHT22;8829;47.932;7.810;2022-10-12T12:05:54;16.50;99.90
17423;DHT22;8829;47.932;7.810;2022-10-12T12:08:57;16.40;99.90
17423;DHT22;8829;47.932;7.810;2022-10-12T12:11:26;16.50;99.90
17423;DHT22;8829;47.932;7.810;2022-10-12T12:17:13;16.50;99.90
17423;DHT22;8829;47.932;7.810;2022-10-12T12:19:46;16.60;99.90
17423;DHT22;8829;47.932;7.810;2022-10-12T12:25:22;16.70;99.90
17423;DHT22;8829;47.932;7.810;2022-10-12T12:27:52;16.60;99.90
17423;DHT22;8829;47.932;7.810;2022-10-12T12:30:33;16.70;99.90
17423;DHT22;8829;47.932;7.810;2022-10-12T12:33:02;16.80;99.90
17423;DHT22;8829;47.932;7.810;2022-10-12T12:35:34;16.70;99.90
17423;DHT22;8829;47.932;7.810;2022-10-12T12:38:05;16.60;99.90
17423;DHT22;8829;47.932;7.810;2022-10-12T12:40:35;16.60;99.90
17423;DHT22;8829;47.932;7.810;2022-10-12T12:43:35;16.70;99.90
17423;DHT22;8829;47.932;7.810;2022-10-12T12:46:04;16.80;99.90
17423;DHT22;8829;47.932;7.810;2022-10-12T12:48:55;16.90;99.90
17423;DHT22;8829;47.932;7.810;2022-10-12T12:51:23;17.00;99.90
17423;DHT22;8829;47.932;7.810;2022-10-12T12:53:55;17.00;99.90
17423;DHT22;8829;47.932;7.810;2022-10-12T12:56:31;16.70;99.90
17423;DHT22;8829;47.932;7.810;2022-10-12T12:59:16;16.40;99.90
17423;DHT22;8829;47.932;7.810;2022-10-12T13:01:59;16.10;99.90
17423;DHT22;8829;47.932;7.810;2022-10-12T13:04:39;16.10;99.90
17423;DHT22;8829;47.932;7.810;2022-10-12T13:07:41;16.10;99.90
17423;DHT22;8829;47.932;7.810;2022-10-12T13:10:27;16.40;99.90
17423;DHT22;8829;47.932;7.810;2022-10-12T13:13:15;16.50;99.90
17423;DHT22;8829;47.932;7.810;2022-10-12T13:15:57;16.50;99.90
17423;DHT22;8829;47.932;7.810;2022-10-12T13:21:25;16.70;99.90
17423;DHT22;8829;47.932;7.810;2022-10-12T13:24:00;16.70;99.90
17423;DHT22;8829;47.932;7.810;2022-10-12T13:26:30;16.60;99.90
17423;DHT22;8829;47.932;7.810;2022-10-12T13:29:01;16.70;99.90
17423;DHT22;8829;47.932;7.810;2022-10-12T13:31:35;16.80;99.90
17423;DHT22;8829;47.932;7.810;2022-10-12T13:34:10;16.70;99.90
17423;DHT22;8829;47.932;7.810;2022-10-12T13:36:49;16.70;99.90
17423;DHT22;8829;47.932;7.810;2022-10-12T13:39:18;16.70;99.90
17423;DHT22;8829;47.932;7.810;2022-10-12T13:41:50;16.60;99.90
17423;DHT22;8829;47.932;7.810;2022-10-12T13:44:22;16.60;99.90
17423;DHT22;8829;47.932;7.810;2022-10-12T13:46:50;16.50;99.90
17423;DHT22;8829;47.932;7.810;2022-10-12T13:49:22;16.50;99.90
17423;DHT22;8829;47.932;7.810;2022-10-12T13:51:52;16.50;99.90
17423;DHT22;8829;47.932;7.810;2022-10-12T13:54:22;16.50;99.90
17423;DHT22;8829;47.932;7.810;2022-10-12T13:56:52;16.50;99.90
17423;DHT22;8829;47.932;7.810;2022-10-12T13:59:22;16.50;99.90
17423;DHT22;8829;47.932;7.810;2022-10-12T14:01:53;16.30;99.90
17423;DHT22;8829;47.932;7.810;2022-10-12T14:04:21;16.20;99.90
17423;DHT22;8829;47.932;7.810;2022-10-12T14:06:57;16.10;99.90
17423;DHT22;8829;47.932;7.810;2022-10-12T14:09:26;16.10;99.90
17423;DHT22;8829;47.932;7.810;2022-10-12T14:11:54;16.10;99.90
17423;DHT22;8829;47.932;7.810;2022-10-12T14:14:28;16.10;99.90
17423;DHT22;8829;47.932;7.810;2022-10-12T14:16:56;16.10;99.90
17423;DHT22;8829;47.932;7.810;2022-10-12T14:19:42;16.10;99.90
17423;DHT22;8829;47.932;7.810;2022-10-12T14:22:10;16.30;99.90
17423;DHT22;8829;47.932;7.810;2022-10-12T14:24:38;16.40;99.90
17423;DHT22;8829;47.932;7.810;2022-10-12T14:27:06;16.50;99.90
17423;DHT22;8829;47.932;7.810;2022-10-12T14:29:40;16.50;99.90
17423;DHT22;8829;47.932;7.810;2022-10-12T14:32:35;16.60;99.90
17423;DHT22;8829;47.932;7.810;2022-10-12T14:35:20;16.40;99.90
17423;DHT22;8829;47.932;7.810;2022-10-12T14:37:48;16.40;99.90
17423;DHT22;8829;47.932;7.810;2022-10-12T14:40:38;16.40;99.90
17423;DHT22;8829;47.932;7.810;2022-10-12T14:43:18;16.20;99.90
17423;DHT22;8829;47.932;7.810;2022-10-12T14:45:47;16.30;99.90
17423;DHT22;8829;47.932;7.810;2022-10-12T14:48:17;16.40;99.90
17423;DHT22;8829;47.932;7.810;2022-10-12T14:50:45;16.40;99.90
17423;DHT22;8829;47.932;7.810;2022-10-12T14:53:13;16.50;99.90
17423;DHT22;8829;47.932;7.810;2022-10-12T14:55:40;16.50;99.90
17423;DHT22;8829;47.932;7.810;2022-10-12T14:58:13;16.60;99.90
17423;DHT22;8829;47.932;7.810;2022-10-12T15:00:41;16.60;99.90
17423;DHT22;8829;47.932;7.810;2022-10-12T15:03:10;16.50;99.90
17423;DHT22;8829;47.932;7.810;2022-10-12T15:05:36;16.40;99.90
17423;DHT22;8829;47.932;7.810;2022-10-12T15:08:03;16.30;99.90
17423;DHT22;8829;47.932;7.810;2022-10-12T15:10:33;16.30;99.90
17423;DHT22;8829;47.932;7.810;2022-10-12T15:13:01;16.30;99.90
17423;DHT22;8829;47.932;7.810;2022-10-12T15:15:33;16.40;99.90
17423;DHT22;8829;47.932;7.810;2022-10-12T15:18:01;16.30;99.90
17423;DHT22;8829;47.932;7.810;2022-10-12T15:20:30;16.40;99.90
17423;DHT22;8829;47.932;7.810;2022-10-12T15:22:58;16.40;99.90
17423;DHT22;8829;47.932;7.810;2022-10-12T15:25:35;16.40;99.90
17423;DHT22;8829;47.932;7.810;2022-10-12T15:28:03;16.30;99.90
17423;DHT22;8829;47.932;7.810;2022-10-12T15:30:30;16.30;99.90
17423;DHT22;8829;47.932;7.810;2022-10-12T15:32:57;16.20;99.90
17423;DHT22;8829;47.932;7.810;2022-10-12T15:35:25;16.20;99.90
17423;DHT22;8829;47.932;7.810;2022-10-12T15:37:54;16.30;99.90
17423;DHT22;8829;47.932;7.810;2022-10-12T15:40:22;16.20;99.90
17423;DHT22;8829;47.932;7.810;2022-10-12T15:42:48;16.10;99.90
17423;DHT22;8829;47.932;7.810;2022-10-12T15:45:18;16.10;99.90
17423;DHT22;8829;47.932;7.810;2022-10-12T15:47:46;16.00;99.90
17423;DHT22;8829;47.932;7.810;2022-10-12T15:50:13;16.00;99.90
17423;DHT22;8829;47.932;7.810;2022-10-12T15:52:41;16.00;99.90
17423;DHT22;8829;47.932;7.810;2022-10-12T15:55:15;15.90;99.90
17423;DHT22;8829;47.932;7.810;2022-10-12T15:57:43;15.90;99.90
17423;DHT22;8829;47.932;7.810;2022-10-12T16:00:12;15.90;99.90
17423;DHT22;8829;47.932;7.810;2022-10-12T16:02:39;15.80;99.90
17423;DHT22;8829;47.932;7.810;2022-10-12T16:05:15;15.80;99.90
17423;DHT22;8829;47.932;7.810;2022-10-12T16:07:42;15.60;99.90
17423;DHT22;8829;47.932;7.810;2022-10-12T16:10:09;15.50;99.90
17423;DHT22;8829;47.932;7.810;2022-10-12T16:12:42;15.40;99.90
17423;DHT22;8829;47.932;7.810;2022-10-12T16:15:10;15.30;99.90
17423;DHT22;8829;47.932;7.810;2022-10-12T16:17:37;15.20;99.90
17423;DHT22;8829;47.932;7.810;2022-10-12T16:20:05;15.00;99.90
17423;DHT22;8829;47.932;7.810;2022-10-12T16:22:32;14.90;99.90